Salinas, CA

4:26 PM PDT on October 24, 2014 (GMT -0700)
Salinas Municipal | Change Station
CLOSE
Current Station
Airport
Location: Salinas,
Elevation: 85 ft
Nearby Weather Stations

Elev 85 ft 36.66 °N, 121.61 °W | Updated 26 minutes ago

Mostly Cloudy
Mostly Cloudy
66 °F
Feels Like 66 °F
N
14
Wind Variable Wind from West

Today
High -- | Low -- °F
--% Chance of Precip.
Yesterday
High -- | Low -- °F
Precip. -- in
7:22 AM 6:18 PM
New Moon, 1% visible
Pressure 29.92 in
Visibility 10.0 miles
Clouds Mostly Cloudy 1700 ft
Dew Point 55 °F
Humidity 68%
Rainfall 0.00 in
Snow Depth Not available.
UV 1 out of 12
Pollen 2.60 out of 12
Air Quality Not available.
Flu Activity Sporadic
SPECI KSNS 242300Z 28012KT 10SM BKN017 19/13 A2992 RMK AO2

More Conditions Fewer Conditions

Pressure 29.92 in
Visibility 10.0 miles
Clouds Mostly Cloudy 1700 ft
Dew Point 55 °F
Humidity 68%
Rainfall 0.00 in
Snow Depth Not available.
UV 1 out of 12
Pollen 2.60 out of 12
Air Quality Not available.
Flu Activity Sporadic
SPECI KSNS 242300Z 28012KT 10SM BKN017 19/13 A2992 RMK AO2

More Conditions Fewer Conditions

10-Day Weather Forecast

Almanac

Astronomy

Oct. 24, 2014 Rise Set
Actual Time 7:22 AM PDT 6:18 PM PDT
Civil Twilight 6:56 AM PDT 6:44 PM PDT
Nautical Twilight 6:25 AM PDT 7:15 PM PDT
Astronomical Twilight 5:55 AM PDT 7:45 PM PDT
Moon 8:05 AM PDT 7:03 PM PDT
Length of Visible Light 11h 48m
Length of Day
10h 56m
Tomorrow will be 2m 8s shorter.
New Moon, 1% of the Moon is Illuminated
Today
New Moon
Oct 30
First Quarter
Nov 6
Full
Nov 14
Last Quarter
Nov 22
New

Today's Extremes

State Highs State Lows

Community

WunderPhotos

Upload Photos

1,764,710 photos uploaded!

Nearby

Snow Depth

Station Depth Elevation
Leavitt Meadows 0 in 7200 ft
Summit Meadow 0 in 9122 ft
Ward Creek #3 12 in 6750 ft
Adin Mountain 0 in 6200 ft

Earthquake Activity

City Distance Mag. Time & Date
Kettleman City, California 118 miles 2.5 9:08 AM PDT
2014-10-22
Minimum magnitude displayed is 2.5.

Coastal Water Temperatures

Place Temperature
Monterey, CA 63.0 °F
Redwood City, CA 66.9 °F

Nearby Weather Stations